Time;durP1;ratioP1;P1;durP2;ratioP2;P2;SDS_P1;SDS_P2;PMS_P1;PMS_P2;Temp;Humidity;BMP_temperature;BMP_pressure;BME280_temperature;BME280_humidity;BME280_pressure;Samples;Min_cycle;Max_cycle;Signal;HPM_P1;HPM_P2
2022/06/01 00:00:30;;;;;;;6.00;4.60;;;;;;;9.73;100.00;96151.56;5089722;28;20542;-73
2022/06/01 00:02:57;;;;;;;4.37;4.07;;;;;;;9.61;100.00;96161.31;5059428;28;20539;-73
2022/06/01 00:05:25;;;;;;;6.17;4.67;;;;;;;9.72;100.00;96163.22;5055921;28;20468;-73
2022/06/01 00:07:52;;;;;;;9.93;5.13;;;;;;;9.55;100.00;96158.09;5070627;28;20425;-73
2022/06/01 00:10:19;;;;;;;4.17;3.80;;;;;;;9.63;100.00;96138.03;5059539;28;20436;-73
2022/06/01 00:12:46;;;;;;;5.23;4.80;;;;;;;9.65;100.00;96154.31;5075267;28;20472;-73
2022/06/01 00:15:14;;;;;;;3.87;3.53;;;;;;;9.77;100.00;96172.84;5069473;28;20429;-73
2022/06/01 00:17:41;;;;;;;5.30;4.13;;;;;;;9.08;100.00;96118.75;5070436;28;20432;-73
2022/06/01 00:20:09;;;;;;;4.20;3.80;;;;;;;9.63;100.00;96177.63;5074335;28;20431;-73
2022/06/01 00:22:36;;;;;;;5.63;5.00;;;;;;;9.48;100.00;96156.00;5087240;28;20478;-74
2022/06/01 00:25:06;;;;;;;5.23;4.80;;;;;;;9.91;100.00;96183.91;5094271;28;20516;-74
2022/06/01 00:27:33;;;;;;;5.73;5.23;;;;;;;9.89;100.00;96166.84;5092832;28;20522;-73
2022/06/01 00:30:01;;;;;;;9.83;5.90;;;;;;;9.53;100.00;96159.53;5093027;28;20443;-73
2022/06/01 00:32:28;;;;;;;8.10;7.40;;;;;;;9.72;100.00;96205.47;5090722;28;20459;-73
2022/06/01 00:34:55;;;;;;;7.00;6.30;;;;;;;9.59;100.00;96152.94;5072622;28;20424;-73
2022/06/01 00:37:21;;;;;;;6.60;6.00;;;;;;;10.07;100.00;96199.91;5072416;28;20518;-73
2022/06/01 00:39:48;;;;;;;6.53;5.93;;;;;;;10.10;100.00;96209.03;5072466;28;20531;-73
2022/06/01 00:42:19;;;;;;;6.93;5.43;;;;;;;10.22;100.00;96217.03;5073458;28;20509;-73
2022/06/01 00:44:46;;;;;;;4.97;4.43;;;;;;;10.27;100.00;96217.59;5055612;28;20506;-73
2022/06/01 00:47:16;;;;;;;4.97;4.57;;;;;;;10.36;100.00;96223.56;5072136;28;20561;-73
2022/06/01 00:50:06;;;;;;;4.47;4.17;;;;;;;10.50;100.00;96219.84;5084294;28;20423;-74
2022/06/01 00:52:36;;;;;;;4.67;4.27;;;;;;;10.44;100.00;96221.19;5080595;28;20554;-73
2022/06/01 00:55:07;;;;;;;4.20;3.90;;;;;;;10.32;100.00;96208.69;5075417;28;20463;-73
2022/06/01 00:57:34;;;;;;;4.57;4.20;;;;;;;9.86;100.00;96176.16;5075661;28;20526;-73
2022/06/01 01:00:06;;;;;;;4.80;4.40;;;;;;;9.85;100.00;96195.75;5075451;28;20565;-73
2022/06/01 01:02:33;;;;;;;8.00;5.23;;;;;;;9.81;100.00;96186.16;5075387;28;20455;-73
2022/06/01 01:05:00;;;;;;;6.20;5.70;;;;;;;9.58;100.00;96159.31;5093385;28;20970;-73
2022/06/01 01:07:27;;;;;;;4.70;4.30;;;;;;;9.64;100.00;96153.53;5093687;28;20428;-73
2022/06/01 01:09:54;;;;;;;5.10;4.60;;;;;;;9.50;100.00;96139.06;5093435;28;20430;-73
2022/06/01 01:12:21;;;;;;;5.63;5.10;;;;;;;9.29;100.00;96113.47;5091908;28;20550;-73
2022/06/01 01:14:48;;;;;;;4.73;4.33;;;;;;;9.68;100.00;96135.19;5094728;28;20515;-74
2022/06/01 01:17:15;;;;;;;5.30;4.80;;;;;;;9.87;100.00;96153.16;5094483;28;20443;-73
2022/06/01 01:19:48;;;;;;;4.60;4.30;;;;;;;9.62;100.00;96141.78;5094071;28;20439;-73
2022/06/01 01:22:23;;;;;;;4.40;4.00;;;;;;;9.84;100.00;96173.06;5095879;28;20539;-74
2022/06/01 01:25:18;;;;;;;6.13;5.40;;;;;;;9.77;100.00;96168.34;5094561;28;20961;-73
2022/06/01 01:27:47;;;;;;;4.77;4.47;;;;;;;9.76;100.00;96169.44;5077666;28;20527;-74
2022/06/01 01:30:25;;;;;;;5.13;4.73;;;;;;;9.96;100.00;96170.47;5054205;28;20467;-74
2022/06/01 01:32:52;;;;;;;5.30;4.87;;;;;;;9.74;100.00;96144.44;5071615;28;20966;-73
2022/06/01 01:35:19;;;;;;;4.33;4.00;;;;;;;9.89;100.00;96166.84;5071923;28;20805;-73
2022/06/01 01:37:48;;;;;;;4.93;4.53;;;;;;;9.90;100.00;96171.03;5072107;28;20793;-74
2022/06/01 01:40:15;;;;;;;5.27;4.87;;;;;;;10.00;100.00;96167.94;5071708;28;20416;-73
2022/06/01 01:42:42;;;;;;;5.60;5.20;;;;;;;9.91;100.00;96167.28;5071023;28;20464;-73
2022/06/01 01:45:20;;;;;;;5.20;4.80;;;;;;;9.60;100.00;96134.16;5071001;28;20881;-73
2022/06/01 01:47:47;;;;;;;5.50;5.10;;;;;;;9.84;100.00;96154.59;5071416;28;20483;-73
2022/06/01 01:50:14;;;;;;;4.80;4.50;;;;;;;9.72;100.00;96123.63;5071224;28;20527;-73
2022/06/01 01:52:41;;;;;;;5.17;4.37;;;;;;;9.80;100.00;96132.59;5071058;28;20456;-73
2022/06/01 01:55:29;;;;;;;5.27;4.87;;;;;;;9.73;100.00;96134.97;5072315;28;20478;-73
2022/06/01 01:57:58;;;;;;;4.70;4.33;;;;;;;10.09;100.00;96173.94;5071082;28;20475;-73
2022/06/01 02:00:34;;;;;;;5.00;4.50;;;;;;;10.09;100.00;96176.56;5070854;28;20527;-73
2022/06/01 02:03:21;;;;;;;5.53;4.30;;;;;;;10.10;100.00;96179.97;5071005;28;20460;-73
2022/06/01 02:06:14;;;;;;;7.53;4.90;;;;;;;10.11;100.00;96173.59;5070741;28;20487;-73
2022/06/01 02:08:50;;;;;;;5.00;4.60;;;;;;;9.97;100.00;96165.97;5070861;28;20527;-73
2022/06/01 02:14:43;;;;;;;6.03;5.37;;;;;;;9.64;100.00;96161.47;5085724;28;20439;-74
2022/06/01 02:17:14;;;;;;;5.60;5.20;;;;;;;9.58;100.00;96136.34;5070649;28;20531;-73
2022/06/01 02:19:44;;;;;;;5.93;5.53;;;;;;;9.88;100.00;96171.34;5070410;28;20436;-73
2022/06/01 02:22:13;;;;;;;5.13;4.63;;;;;;;9.64;100.00;96168.59;5071865;28;20536;-73
2022/06/01 02:24:41;;;;;;;6.10;5.50;;;;;;;9.84;100.00;96181.00;5070487;28;20444;-73
2022/06/01 02:27:09;;;;;;;6.80;5.23;;;;;;;9.75;100.00;96156.56;5071994;28;20551;-73
2022/06/01 02:29:43;;;;;;;7.00;4.20;;;;;;;9.59;100.00;96151.09;5088594;28;20535;-73
2022/06/01 02:32:11;;;;;;;5.47;5.07;;;;;;;9.73;100.00;96177.22;5057721;28;20468;-73
2022/06/01 02:34:40;;;;;;;5.70;5.20;;;;;;;9.47;100.00;96172.13;5070117;28;20437;-73
2022/06/01 02:37:08;;;;;;;6.30;5.70;;;;;;;9.26;100.00;96147.63;5071432;28;20477;-73
2022/06/01 02:39:39;;;;;;;5.97;5.30;;;;;;;9.23;100.00;96153.56;5079023;28;20510;-74
2022/06/01 02:42:28;;;;;;;5.60;5.10;;;;;;;9.38;100.00;96163.53;5088712;28;20971;-73
2022/06/01 02:45:06;;;;;;;5.57;5.13;;;;;;;9.37;100.00;96175.19;5070258;28;20529;-73
2022/06/01 02:47:37;;;;;;;5.00;4.60;;;;;;;9.17;100.00;96147.69;5070027;28;20543;-74
2022/06/01 02:50:06;;;;;;;5.40;5.00;;;;;;;9.26;100.00;96168.72;5070035;28;20483;-73
2022/06/01 02:52:33;;;;;;;5.30;4.90;;;;;;;9.17;100.00;96163.50;5070116;28;20496;-73
2022/06/01 02:55:00;;;;;;;5.63;5.20;;;;;;;8.99;100.00;96120.66;5071209;28;20463;-73
2022/06/01 02:57:27;;;;;;;5.40;5.00;;;;;;;9.21;100.00;96161.00;5070160;28;20490;-73
2022/06/01 02:59:53;;;;;;;5.40;5.00;;;;;;;9.06;100.00;96143.88;5053653;28;20451;-73
2022/06/01 03:02:20;;;;;;;6.03;5.43;;;;;;;9.17;100.00;96150.31;5087156;28;20548;-73
2022/06/01 03:04:47;;;;;;;4.83;4.43;;;;;;;9.36;100.00;96177.06;5070048;28;20823;-73
2022/06/01 03:07:13;;;;;;;4.90;4.50;;;;;;;9.33;100.00;96163.69;5061343;28;20505;-73
2022/06/01 03:09:41;;;;;;;4.80;4.50;;;;;;;9.18;100.00;96150.00;5073454;28;20439;-73
2022/06/01 03:12:09;;;;;;;5.33;5.03;;;;;;;9.06;100.00;96154.41;5081692;28;20494;-73
2022/06/01 03:14:36;;;;;;;5.83;5.33;;;;;;;8.96;100.00;96144.28;5069876;28;20531;-73
2022/06/01 03:17:05;;;;;;;4.87;4.40;;;;;;;8.96;100.00;96168.78;5070105;28;20516;-73
2022/06/01 03:19:32;;;;;;;5.83;5.43;;;;;;;8.95;100.00;96169.06;5070157;28;20587;-74
2022/06/01 03:21:59;;;;;;;5.87;5.47;;;;;;;8.84;100.00;96168.69;5069941;28;20515;-74
2022/06/01 03:24:26;;;;;;;5.90;5.50;;;;;;;8.95;100.00;96175.13;5069870;28;20951;-73
2022/06/01 03:26:53;;;;;;;6.00;5.50;;;;;;;8.84;100.00;96151.00;5069896;28;20482;-73
2022/06/01 03:29:21;;;;;;;5.43;5.03;;;;;;;8.75;100.00;96147.63;5070053;28;20429;-73
2022/06/01 03:31:48;;;;;;;5.67;5.27;;;;;;;8.77;100.00;96166.53;5069578;28;20987;-74
2022/06/01 03:34:15;;;;;;;5.37;4.97;;;;;;;8.81;100.00;96146.38;5069746;28;20441;-74
2022/06/01 03:36:41;;;;;;;6.57;5.83;;;;;;;8.92;100.00;96167.06;5069819;28;20525;-74
2022/06/01 03:39:08;;;;;;;6.57;5.97;;;;;;;8.74;100.00;96169.81;5069817;28;20440;-74
2022/06/01 03:41:35;;;;;;;6.20;5.67;;;;;;;8.69;100.00;96138.38;5069777;28;20469;-74
2022/06/01 03:46:46;;;;;;;6.20;5.60;;;;;;;8.99;100.00;96191.09;5070890;28;20554;-73
2022/06/01 03:49:13;;;;;;;5.40;4.90;;;;;;;8.82;100.00;96136.59;5072821;28;20903;-73
2022/06/01 03:51:40;;;;;;;7.73;4.87;;;;;;;9.07;100.00;96174.44;5065451;28;20446;-73
2022/06/01 03:54:06;;;;;;;6.00;5.40;;;;;;;9.09;100.00;96172.28;5093386;28;20515;-73
2022/06/01 03:56:35;;;;;;;5.97;4.83;;;;;;;9.00;100.00;96167.03;5094779;28;20867;-74
2022/06/01 03:59:02;;;;;;;7.17;5.73;;;;;;;8.82;100.00;96178.78;5093560;28;20527;-73
2022/06/01 04:01:29;;;;;;;5.63;5.07;;;;;;;8.57;100.00;96167.25;5076849;28;20443;-73
2022/06/01 04:03:56;;;;;;;6.33;5.73;;;;;;;8.75;100.00;96167.94;5085463;28;21000;-74
2022/06/01 04:06:22;;;;;;;5.10;4.70;;;;;;;8.80;100.00;96173.03;5090118;28;20559;-74
2022/06/01 04:08:49;;;;;;;5.13;4.73;;;;;;;8.77;100.00;96171.03;5073208;28;20486;-73
2022/06/01 04:11:16;;;;;;;6.10;5.53;;;;;;;8.94;100.00;96178.06;5074313;28;20455;-74
2022/06/01 04:13:42;;;;;;;6.13;5.67;;;;;;;9.23;100.00;96199.16;5073131;28;20513;-73
2022/06/01 04:16:10;;;;;;;5.90;5.40;;;;;;;9.27;100.00;96197.44;5074683;28;20446;-73
2022/06/01 04:18:49;;;;;;;6.60;5.40;;;;;;;9.18;100.00;96197.47;5080850;28;20793;-74
2022/06/01 04:21:21;;;;;;;5.20;4.80;;;;;;;9.28;100.00;96198.97;5094177;28;20440;-74
2022/06/01 04:23:50;;;;;;;5.70;5.20;;;;;;;9.06;100.00;96175.53;5074920;28;20558;-76
2022/06/01 04:26:16;;;;;;;6.63;5.93;;;;;;;8.83;100.00;96167.13;5073373;28;20913;-76
2022/06/01 04:28:44;;;;;;;6.40;5.90;;;;;;;9.35;100.00;96204.53;5089869;28;20511;-75
2022/06/01 04:31:11;;;;;;;5.63;5.23;;;;;;;9.25;100.00;96154.78;5074207;28;20424;-75
2022/06/01 04:33:42;;;;;;;6.40;5.80;;;;;;;9.59;100.00;96192.53;5073154;28;20872;-75
2022/06/01 04:36:09;;;;;;;6.20;5.70;;;;;;;9.61;100.00;96208.81;5072849;28;20551;-76
2022/06/01 04:38:36;;;;;;;5.97;5.50;;;;;;;9.27;100.00;96141.25;5072732;28;20480;-75
2022/06/01 04:41:03;;;;;;;5.40;5.00;;;;;;;9.39;100.00;96178.25;5052387;28;20459;-76
2022/06/01 04:43:30;;;;;;;6.20;5.70;;;;;;;9.62;100.00;96197.97;5072647;28;20547;-76
2022/06/01 04:45:58;;;;;;;6.30;5.70;;;;;;;9.97;100.00;96210.88;5072540;28;20525;-75
2022/06/01 04:48:26;;;;;;;10.80;6.40;;;;;;;9.93;100.00;96189.63;5052899;28;20469;-75
2022/06/01 04:50:55;;;;;;;11.20;8.60;;;;;;;9.88;100.00;96191.69;5077470;28;20475;-75
2022/06/01 04:53:23;;;;;;;10.20;9.13;;;;;;;9.88;100.00;96218.88;5073428;28;20452;-75
2022/06/01 04:55:50;;;;;;;10.10;9.00;;;;;;;10.02;100.00;96208.81;5073181;28;20935;-76
2022/06/01 04:58:16;;;;;;;10.40;9.37;;;;;;;10.04;100.00;96182.84;5090341;28;20571;-75
2022/06/01 05:00:44;;;;;;;14.43;10.90;;;;;;;9.96;100.00;96210.09;5073327;28;20456;-75
2022/06/01 05:03:12;;;;;;;11.60;10.40;;;;;;;9.64;100.00;96214.25;5056292;28;20487;-75
2022/06/01 05:05:40;;;;;;;11.20;9.33;;;;;;;9.48;100.00;96184.22;5090140;28;20538;-75
2022/06/01 05:08:10;;;;;;;11.90;10.70;;;;;;;9.76;100.00;96182.63;5073589;28;20432;-77
2022/06/01 05:10:38;;;;;;;11.77;10.27;;;;;;;9.87;100.00;96185.63;5074347;28;20425;-75
2022/06/01 05:13:04;;;;;;;13.00;10.67;;;;;;;9.84;100.00;96196.84;5075103;28;21144;-75
2022/06/01 05:15:32;;;;;;;12.50;10.13;;;;;;;9.94;100.00;96185.88;5083367;28;20476;-75
2022/06/01 05:17:58;;;;;;;11.40;10.27;;;;;;;9.96;100.00;96173.13;5079420;28;20898;-75
2022/06/01 05:20:25;;;;;;;14.60;10.83;;;;;;;9.87;100.00;96188.25;5063441;28;20464;-75
2022/06/01 05:22:52;;;;;;;10.40;9.40;;;;;;;9.88;100.00;96178.47;5069536;28;20491;-75
2022/06/01 05:25:21;;;;;;;12.03;10.67;;;;;;;9.79;100.00;96183.84;5057471;28;20874;-75
2022/06/01 05:27:48;;;;;;;11.33;10.23;;;;;;;9.99;100.00;96190.94;5073318;28;20512;-75
2022/06/01 05:30:15;;;;;;;13.63;10.60;;;;;;;9.99;100.00;96201.50;5073277;28;20818;-75
2022/06/01 05:32:41;;;;;;;12.90;11.50;;;;;;;9.66;100.00;96158.50;5071395;28;20460;-74
2022/06/01 05:35:08;;;;;;;12.20;11.00;;;;;;;9.70;100.00;96169.94;5074048;28;21002;-77
2022/06/01 05:37:35;;;;;;;12.07;10.77;;;;;;;9.90;100.00;96173.66;5092617;28;20522;-76
2022/06/01 05:40:01;;;;;;;11.17;10.13;;;;;;;9.86;100.00;96184.09;5079471;28;20439;-77
2022/06/01 05:42:28;;;;;;;13.73;11.40;;;;;;;10.06;100.00;96201.78;5078875;28;20519;-77
2022/06/01 05:44:55;;;;;;;11.60;10.47;;;;;;;10.19;100.00;96173.53;5085457;28;20539;-77
2022/06/01 05:47:21;;;;;;;12.20;11.07;;;;;;;10.74;100.00;96205.91;5078048;28;20467;-77
2022/06/01 05:49:49;;;;;;;12.40;11.30;;;;;;;10.77;100.00;96192.00;5076975;28;20431;-77
2022/06/01 05:52:18;;;;;;;12.13;11.03;;;;;;;11.17;100.00;96215.94;5092856;28;20498;-77
2022/06/01 05:54:46;;;;;;;11.93;10.73;;;;;;;10.87;100.00;96212.75;5072279;28;20957;-78
2022/06/01 05:57:14;;;;;;;12.70;11.30;;;;;;;10.98;100.00;96216.50;5072437;28;20428;-77
2022/06/01 05:59:41;;;;;;;12.33;11.13;;;;;;;10.82;100.00;96182.00;5072128;28;20535;-78
2022/06/01 06:02:08;;;;;;;12.53;11.33;;;;;;;11.32;100.00;96233.78;5072167;28;20547;-77
2022/06/01 06:04:35;;;;;;;13.80;12.20;;;;;;;11.07;100.00;96214.50;5072182;28;20981;-77
2022/06/01 06:07:02;;;;;;;12.13;11.03;;;;;;;11.14;100.00;96214.72;5071886;28;20571;-78
2022/06/01 06:09:29;;;;;;;12.17;11.00;;;;;;;11.37;100.00;96235.44;5071949;28;21320;-78
2022/06/01 06:11:56;;;;;;;13.83;11.37;;;;;;;11.67;100.00;96239.34;5075045;28;20927;-77
2022/06/01 06:14:22;;;;;;;13.03;11.87;;;;;;;11.88;100.00;96214.59;5072026;28;20532;-78
2022/06/01 06:16:49;;;;;;;14.20;11.20;;;;;;;11.49;100.00;96201.78;5071448;28;20523;-77
2022/06/01 06:19:18;;;;;;;14.70;12.03;;;;;;;12.04;100.00;96240.03;5068884;28;20427;-78
2022/06/01 06:21:45;;;;;;;11.87;10.67;;;;;;;12.37;100.00;96226.50;5067671;28;20441;-77
2022/06/01 06:24:14;;;;;;;13.07;11.83;;;;;;;12.30;100.00;96204.38;5071476;28;20809;-78
2022/06/01 06:26:45;;;;;;;10.23;9.33;;;;;;;12.56;100.00;96228.53;5072931;28;20610;-78
2022/06/01 06:29:15;;;;;;;11.83;10.83;;;;;;;12.99;100.00;96248.91;5085022;28;20892;-78
2022/06/01 06:31:42;;;;;;;14.00;11.33;;;;;;;12.80;100.00;96222.28;5072835;28;20496;-77
2022/06/01 06:34:14;;;;;;;10.63;9.60;;;;;;;12.98;100.00;96194.28;5071436;28;20439;-78
2022/06/01 06:36:44;;;;;;;12.20;11.07;;;;;;;12.89;100.00;96161.84;5055015;28;20447;-78
2022/06/01 06:39:11;;;;;;;11.87;10.77;;;;;;;13.77;100.00;96251.81;5071625;28;20514;-78
2022/06/01 06:41:38;;;;;;;12.10;11.00;;;;;;;13.22;100.00;96190.69;5051660;28;20499;-78
2022/06/01 06:44:05;;;;;;;11.93;10.83;;;;;;;13.95;100.00;96233.53;5064730;28;20552;-78
2022/06/01 06:46:32;;;;;;;10.93;9.93;;;;;;;14.39;100.00;96194.88;5079904;28;20539;-78
2022/06/01 06:49:00;;;;;;;9.97;8.93;;;;;;;14.94;100.00;96245.22;5071883;28;20755;-77
2022/06/01 06:51:33;;;;;;;7.00;6.47;;;;;;;14.92;100.00;96204.88;5070909;28;20467;-78
2022/06/01 06:54:01;;;;;;;8.00;6.70;;;;;;;14.96;100.00;96198.50;5071995;28;20899;-78
2022/06/01 06:56:28;;;;;;;6.93;6.20;;;;;;;15.41;100.00;96244.06;5072525;28;20981;-78
2022/06/01 06:58:55;;;;;;;6.50;5.90;;;;;;;15.62;100.00;96218.50;5071789;28;20483;-78
2022/06/01 07:01:21;;;;;;;7.10;6.40;;;;;;;16.18;100.00;96240.88;5071695;28;20437;-78
2022/06/01 07:03:48;;;;;;;5.73;5.27;;;;;;;16.09;100.00;96219.06;5055116;28;20555;-78
2022/06/01 07:06:22;;;;;;;4.87;4.47;;;;;;;16.22;100.00;96213.09;5073002;28;20823;-78
2022/06/01 07:08:52;;;;;;;5.70;5.20;;;;;;;16.88;100.00;96248.09;5071959;28;20551;-78
2022/06/01 07:11:22;;;;;;;5.60;5.10;;;;;;;17.18;100.00;96244.50;5055497;28;20440;-77
2022/06/01 07:13:50;;;;;;;5.50;5.00;;;;;;;17.09;100.00;96239.47;5071735;28;20460;-77
2022/06/01 07:16:20;;;;;;;4.73;4.33;;;;;;;17.30;100.00;96257.56;5071790;28;20443;-78
2022/06/01 07:18:49;;;;;;;4.40;4.10;;;;;;;17.25;100.00;96191.13;5072946;28;20444;-78
2022/06/01 07:21:17;;;;;;;4.80;4.50;;;;;;;17.43;100.00;96234.75;5071450;28;20526;-78
2022/06/01 07:23:45;;;;;;;5.30;4.80;;;;;;;17.97;100.00;96258.00;5071747;28;20456;-78
2022/06/01 07:26:16;;;;;;;4.60;4.20;;;;;;;18.56;100.00;96271.97;5073681;28;21008;-78
2022/06/01 07:28:42;;;;;;;5.10;4.70;;;;;;;17.77;100.00;96221.22;5075614;28;20519;-78
2022/06/01 07:31:09;;;;;;;4.93;4.57;;;;;;;18.25;100.00;96270.72;5075072;28;20962;-77
2022/06/01 07:33:36;;;;;;;5.43;4.60;;;;;;;18.33;100.00;96268.84;5075274;28;20459;-77
2022/06/01 07:36:05;;;;;;;4.57;4.17;;;;;;;18.37;100.00;96232.13;5075264;28;20432;-77
2022/06/01 07:44:44;;;;;;;4.87;4.43;;;;;;;18.57;100.00;96219.19;5076129;28;20458;-78
2022/06/01 07:47:12;;;;;;;5.27;4.87;;;;;;;18.74;100.00;96271.28;5077720;28;20492;-78
2022/06/01 07:49:58;;;;;;;5.33;4.60;;;;;;;18.00;100.00;96181.56;5083518;28;20908;-78
2022/06/01 07:52:45;;;;;;;6.23;4.80;;;;;;;18.73;99.53;96245.63;5075599;28;20454;-78
2022/06/01 07:55:11;;;;;;;7.50;3.80;;;;;;;18.89;92.37;96236.06;5074633;28;20539;-77
2022/06/01 07:57:38;;;;;;;6.33;3.83;;;;;;;18.44;90.35;96247.47;5074333;28;20427;-78
2022/06/01 08:00:05;;;;;;;3.40;3.10;;;;;;;18.79;91.33;96239.50;5074192;28;20444;-78
2022/06/01 08:02:38;;;;;;;4.97;2.80;;;;;;;19.09;85.58;96270.53;5074357;28;20436;-78
2022/06/01 08:05:07;;;;;;;2.60;2.40;;;;;;;18.42;81.83;96247.81;5078350;28;20474;-78
2022/06/01 08:07:33;;;;;;;3.30;3.10;;;;;;;18.81;79.87;96272.03;5095741;28;20547;-77
2022/06/01 08:10:00;;;;;;;3.20;2.90;;;;;;;17.97;78.56;96263.34;5095993;28;20890;-78
2022/06/01 08:15:12;;;;;;;3.20;2.90;;;;;;;18.74;81.37;96271.28;5061315;28;20527;-78
2022/06/01 08:17:47;;;;;;;3.47;2.63;;;;;;;19.15;80.74;96271.69;5090891;28;20411;-78
2022/06/01 08:20:15;;;;;;;4.10;2.37;;;;;;;18.89;75.16;96280.88;5094220;28;20467;-78
2022/06/01 08:22:43;;;;;;;6.00;3.73;;;;;;;18.75;76.44;96260.19;5074744;28;20464;-77
2022/06/01 08:25:13;;;;;;;2.73;2.53;;;;;;;18.91;77.25;96259.81;5073756;28;20862;-77
2022/06/01 08:27:39;;;;;;;3.27;2.97;;;;;;;19.63;76.88;96247.94;5073731;28;20468;-78
2022/06/01 08:30:06;;;;;;;2.93;2.67;;;;;;;19.45;75.24;96234.50;5073753;28;20869;-78
2022/06/01 08:32:33;;;;;;;6.40;3.63;;;;;;;20.13;74.38;96273.84;5077202;28;20451;-77
2022/06/01 08:35:00;;;;;;;3.13;2.93;;;;;;;20.08;70.07;96248.16;5076952;28;20445;-77
2022/06/01 08:37:27;;;;;;;3.67;2.37;;;;;;;19.38;67.54;96209.63;5093877;28;20897;-77
2022/06/01 08:39:54;;;;;;;6.90;2.23;;;;;;;20.44;68.51;96253.41;5076516;28;20534;-78
2022/06/01 08:42:23;;;;;;;3.60;3.30;;;;;;;19.70;68.07;96250.59;5093294;28;20489;-77
2022/06/01 08:44:52;;;;;;;2.90;2.70;;;;;;;18.76;69.52;96215.41;5082630;28;20472;-77
2022/06/01 08:47:31;;;;;;;3.07;2.73;;;;;;;18.52;72.38;96244.41;5057287;28;20467;-78
2022/06/01 08:50:03;;;;;;;3.80;3.00;;;;;;;18.40;72.90;96244.00;5074622;28;20429;-78
2022/06/01 08:52:30;;;;;;;4.33;2.50;;;;;;;18.13;67.69;96238.19;5075322;28;20975;-78
2022/06/01 08:54:57;;;;;;;7.20;2.90;;;;;;;18.48;69.54;96242.88;5076382;28;20424;-78
2022/06/01 08:57:45;;;;;;;2.70;2.50;;;;;;;18.53;69.46;96255.88;5074105;28;20428;-77
2022/06/01 09:00:16;;;;;;;4.53;2.90;;;;;;;18.59;67.09;96230.28;5076577;28;20538;-76
2022/06/01 09:02:45;;;;;;;2.07;1.87;;;;;;;18.54;58.55;96271.56;5082187;28;20504;-76
2022/06/01 09:05:47;;;;;;;4.83;1.70;;;;;;;18.65;55.20;96254.78;5077906;28;20498;-75
2022/06/01 09:08:51;;;;;;;2.03;1.67;;;;;;;18.44;55.63;96258.19;5073664;28;20492;-76
2022/06/01 09:11:27;;;;;;;2.90;1.67;;;;;;;19.19;55.03;96256.38;4994720;28;20446;-75
2022/06/01 09:14:16;;;;;;;1.83;1.43;;;;;;;18.67;51.82;96231.84;5065920;28;20460;-76
2022/06/01 09:16:46;;;;;;;1.53;1.43;;;;;;;18.57;51.77;96264.72;5073488;28;20921;-76
2022/06/01 09:19:27;;;;;;;2.73;1.73;;;;;;;18.43;49.85;96246.69;5055634;28;20873;-75
2022/06/01 09:24:57;;;;;;;2.30;1.67;;;;;;;18.55;48.37;96264.31;5067271;28;20506;-76
2022/06/01 09:27:40;;;;;;;1.90;1.67;;;;;;;18.65;49.42;96265.50;5075347;28;20649;-76
2022/06/01 09:30:21;;;;;;;2.30;1.60;;;;;;;18.49;51.38;96271.94;5071776;28;20517;-76
2022/06/01 09:33:13;;;;;;;1.53;1.43;;;;;;;18.83;51.63;96277.81;5051723;28;20464;-76
2022/06/01 09:35:44;;;;;;;4.70;1.70;;;;;;;18.20;50.11;96246.25;5081356;28;20427;-75
2022/06/01 09:38:34;;;;;;;4.00;1.60;;;;;;;18.71;51.71;96272.03;5063257;28;20524;-76
2022/06/01 09:41:10;;;;;;;1.60;1.50;;;;;;;19.12;51.12;96267.88;5071245;28;20459;-77
2022/06/01 09:43:41;;;;;;;3.00;1.90;;;;;;;19.19;50.36;96267.84;5072830;28;20479;-76
2022/06/01 09:46:08;;;;;;;1.60;1.50;;;;;;;18.82;47.46;96238.75;5071722;28;20437;-77
2022/06/01 09:48:38;;;;;;;2.07;1.57;;;;;;;19.02;46.97;96271.31;5085329;28;20524;-76
2022/06/01 09:51:07;;;;;;;3.20;1.93;;;;;;;19.09;47.14;96263.25;5070530;28;20436;-75
2022/06/01 09:53:41;;;;;;;2.83;1.70;;;;;;;19.38;47.44;96256.00;5071148;28;20452;-75
2022/06/01 09:56:08;;;;;;;2.03;1.47;;;;;;;19.51;49.42;96259.03;5072716;28;20897;-76
2022/06/01 10:07:06;;;;;;;2.10;2.00;;;;;;;18.70;49.82;96267.84;5072498;28;20436;-75
2022/06/01 10:09:34;;;;;;;1.70;1.60;;;;;;;18.54;49.86;96262.78;5085005;28;20530;-76
2022/06/01 10:12:24;;;;;;;2.90;1.60;;;;;;;18.69;50.59;96272.41;5083758;28;20474;-75
2022/06/01 10:14:55;;;;;;;1.97;1.80;;;;;;;18.98;51.75;96248.34;5084372;28;20528;-76
2022/06/01 10:17:33;;;;;;;2.70;1.83;;;;;;;19.36;50.92;96266.31;5070998;28;20436;-76
2022/06/01 10:20:34;;;;;;;1.70;1.60;;;;;;;19.60;50.45;96266.69;5059744;28;21019;-76
2022/06/01 10:23:16;;;;;;;2.33;2.23;;;;;;;19.72;50.48;96264.38;5053513;28;20549;-75
2022/06/01 10:25:55;;;;;;;5.47;2.60;;;;;;;19.38;50.35;96263.28;5080109;28;20955;-75
2022/06/01 10:28:27;;;;;;;2.43;1.73;;;;;;;19.43;52.39;96249.47;5070456;28;20456;-76
2022/06/01 10:31:22;;;;;;;2.20;1.90;;;;;;;18.84;52.54;96243.75;5084148;28;20444;-76
2022/06/01 10:33:56;;;;;;;4.53;2.20;;;;;;;18.70;53.25;96279.31;5070596;28;20491;-76
2022/06/01 10:36:44;;;;;;;2.33;2.10;;;;;;;18.87;52.68;96269.75;5041384;28;20478;-76
2022/06/01 10:39:21;;;;;;;3.30;2.20;;;;;;;18.64;54.72;96270.09;5084043;28;20429;-75
2022/06/01 10:42:06;;;;;;;2.37;1.80;;;;;;;18.89;52.69;96262.09;5070589;28;20956;-76
2022/06/01 10:44:44;;;;;;;2.40;1.87;;;;;;;19.22;53.47;96265.56;5075582;28;20424;-75
2022/06/01 10:47:35;;;;;;;2.00;1.90;;;;;;;19.42;51.84;96243.34;5085204;28;20425;-76
2022/06/01 10:50:17;;;;;;;5.70;2.30;;;;;;;19.15;53.23;96256.38;5086255;28;20503;-76
2022/06/01 10:52:50;;;;;;;2.10;1.70;;;;;;;19.15;53.82;96260.97;5058888;28;20956;-75
2022/06/01 10:55:26;;;;;;;3.57;1.57;;;;;;;19.01;50.53;96244.91;5073289;28;20435;-76
2022/06/01 10:57:56;;;;;;;2.40;2.20;;;;;;;18.78;52.37;96245.25;5090569;28;21328;-76
2022/06/01 11:00:55;;;;;;;1.90;1.80;;;;;;;18.69;54.30;96253.66;5076922;28;20438;-76
2022/06/01 11:03:25;;;;;;;5.80;2.10;;;;;;;18.87;55.11;96259.03;5070620;28;20509;-75
2022/06/01 11:06:12;;;;;;;1.77;1.67;;;;;;;18.85;55.53;96264.03;5080465;28;20490;-75
2022/06/01 11:08:59;;;;;;;2.60;2.40;;;;;;;19.27;54.70;96257.91;5086901;28;20554;-75
2022/06/01 11:11:47;;;;;;;1.80;1.70;;;;;;;19.75;51.63;96262.81;5085874;28;20459;-76
2022/06/01 11:14:37;;;;;;;4.10;2.23;;;;;;;20.59;51.34;96254.88;5090519;28;20489;-75
2022/06/01 11:17:34;;;;;;;2.43;1.87;;;;;;;20.60;49.49;96264.44;5058870;28;20433;-76
2022/06/01 11:20:36;;;;;;;5.80;2.63;;;;;;;20.54;47.85;96231.84;5066196;28;20964;-76
2022/06/01 11:23:06;;;;;;;2.00;1.80;;;;;;;21.08;46.72;96256.44;5044395;28;20826;-75
2022/06/01 11:26:10;;;;;;;3.07;2.17;;;;;;;20.54;47.95;96253.34;5069943;28;20527;-76
2022/06/01 11:28:46;;;;;;;2.83;1.90;;;;;;;20.36;49.55;96242.66;5080054;28;20509;-76
2022/06/01 11:31:24;;;;;;;2.10;1.90;;;;;;;20.01;48.19;96227.47;5087024;28;20452;-76
2022/06/01 11:34:07;;;;;;;2.60;1.70;;;;;;;20.57;48.15;96235.69;5069943;28;20610;-76
2022/06/01 11:36:56;;;;;;;2.23;2.10;;;;;;;20.97;47.29;96242.31;5062072;28;20441;-76
2022/06/01 11:39:46;;;;;;;5.83;1.67;;;;;;;21.00;46.70;96224.63;5090194;28;20461;-76
2022/06/01 11:42:26;;;;;;;1.93;1.83;;;;;;;20.19;47.86;96216.69;5075014;28;20903;-76
2022/06/01 11:45:04;;;;;;;2.73;1.70;;;;;;;20.29;48.08;96233.88;5069843;28;20432;-76
2022/06/01 11:47:54;;;;;;;2.50;1.67;;;;;;;20.01;46.67;96232.84;5053364;28;20459;-76
2022/06/01 11:50:32;;;;;;;3.73;1.90;;;;;;;20.25;47.79;96230.44;5056353;28;20463;-76
2022/06/01 11:53:12;;;;;;;1.87;1.77;;;;;;;20.99;47.33;96206.97;5073853;28;20459;-76
2022/06/01 11:55:39;;;;;;;3.87;2.13;;;;;;;21.64;45.04;96234.84;5054983;28;20993;-77
2022/06/01 11:58:11;;;;;;;5.03;2.43;;;;;;;21.63;44.03;96235.97;5072689;28;20440;-76
2022/06/01 12:00:55;;;;;;;2.07;1.97;;;;;;;21.47;43.42;96231.16;5072932;28;20519;-76
2022/06/01 12:03:25;;;;;;;7.13;2.10;;;;;;;21.24;44.86;96232.50;5072333;28;20491;-76
2022/06/01 12:05:59;;;;;;;5.37;2.10;;;;;;;21.27;45.67;96228.28;5084049;28;20431;-76
2022/06/01 12:08:34;;;;;;;2.13;1.93;;;;;;;21.64;45.42;96235.59;5070971;28;20483;-76
2022/06/01 12:11:04;;;;;;;2.70;2.00;;;;;;;20.78;45.34;96199.84;5085384;28;20517;-77
2022/06/01 12:13:51;;;;;;;1.77;1.67;;;;;;;20.42;45.64;96207.34;5062872;28;20496;-76
2022/06/01 12:16:27;;;;;;;2.57;2.00;;;;;;;20.36;45.70;96194.31;5082626;28;20432;-76